sensor_id;sensor_type;location;lat;lon;timestamp;temperature;humidity
6206;DHT22;3136;48.788;9.772;2023-09-18T00:01:48;16.60;1.00
6206;DHT22;3136;48.788;9.772;2023-09-18T00:04:13;16.60;1.00
6206;DHT22;3136;48.788;9.772;2023-09-18T00:06:39;16.60;1.00
6206;DHT22;3136;48.788;9.772;2023-09-18T00:09:04;16.60;1.00
6206;DHT22;3136;48.788;9.772;2023-09-18T00:11:31;17.50;1.00
6206;DHT22;3136;48.788;9.772;2023-09-18T00:13:57;16.70;1.00
6206;DHT22;3136;48.788;9.772;2023-09-18T00:16:23;16.60;1.00
6206;DHT22;3136;48.788;9.772;2023-09-18T00:18:52;16.60;1.00
6206;DHT22;3136;48.788;9.772;2023-09-18T00:21:17;16.60;1.00
6206;DHT22;3136;48.788;9.772;2023-09-18T00:23:43;16.60;1.00
6206;DHT22;3136;48.788;9.772;2023-09-18T00:26:08;16.60;1.00
6206;DHT22;3136;48.788;9.772;2023-09-18T00:28:34;16.60;1.00
6206;DHT22;3136;48.788;9.772;2023-09-18T00:30:59;16.60;1.00
6206;DHT22;3136;48.788;9.772;2023-09-18T00:33:25;16.60;1.00
6206;DHT22;3136;48.788;9.772;2023-09-18T00:35:51;16.60;1.00
6206;DHT22;3136;48.788;9.772;2023-09-18T00:38:17;16.60;1.00
6206;DHT22;3136;48.788;9.772;2023-09-18T00:40:44;16.60;1.00
6206;DHT22;3136;48.788;9.772;2023-09-18T00:43:09;16.60;1.00
6206;DHT22;3136;48.788;9.772;2023-09-18T00:45:39;16.70;1.00
6206;DHT22;3136;48.788;9.772;2023-09-18T00:48:06;16.50;1.00
6206;DHT22;3136;48.788;9.772;2023-09-18T00:50:32;16.50;1.00
6206;DHT22;3136;48.788;9.772;2023-09-18T00:52:59;16.50;1.00
6206;DHT22;3136;48.788;9.772;2023-09-18T00:55:24;16.50;1.00
6206;DHT22;3136;48.788;9.772;2023-09-18T00:57:50;16.50;1.00
6206;DHT22;3136;48.788;9.772;2023-09-18T01:00:16;16.60;1.00
6206;DHT22;3136;48.788;9.772;2023-09-18T01:02:43;16.50;1.00
6206;DHT22;3136;48.788;9.772;2023-09-18T01:05:10;16.60;1.00
6206;DHT22;3136;48.788;9.772;2023-09-18T01:07:36;16.50;1.00
6206;DHT22;3136;48.788;9.772;2023-09-18T01:10:02;16.50;1.00
6206;DHT22;3136;48.788;9.772;2023-09-18T01:12:44;16.50;1.00
6206;DHT22;3136;48.788;9.772;2023-09-18T01:15:21;16.50;1.00
6206;DHT22;3136;48.788;9.772;2023-09-18T01:17:48;16.40;1.00
6206;DHT22;3136;48.788;9.772;2023-09-18T01:20:14;16.40;1.00
6206;DHT22;3136;48.788;9.772;2023-09-18T01:22:40;16.50;1.00
6206;DHT22;3136;48.788;9.772;2023-09-18T01:25:06;16.80;1.00
6206;DHT22;3136;48.788;9.772;2023-09-18T01:27:32;16.40;1.00
6206;DHT22;3136;48.788;9.772;2023-09-18T01:29:58;16.40;1.00
6206;DHT22;3136;48.788;9.772;2023-09-18T01:32:26;16.40;1.00
6206;DHT22;3136;48.788;9.772;2023-09-18T01:34:54;16.40;1.00
6206;DHT22;3136;48.788;9.772;2023-09-18T01:37:23;16.40;1.00
6206;DHT22;3136;48.788;9.772;2023-09-18T01:39:50;16.40;1.00
6206;DHT22;3136;48.788;9.772;2023-09-18T01:42:17;16.50;1.00
6206;DHT22;3136;48.788;9.772;2023-09-18T01:44:43;16.50;2.70
6206;DHT22;3136;48.788;9.772;2023-09-18T01:47:13;16.60;1.00
6206;DHT22;3136;48.788;9.772;2023-09-18T01:49:40;16.60;1.00
6206;DHT22;3136;48.788;9.772;2023-09-18T01:52:08;16.60;1.00
6206;DHT22;3136;48.788;9.772;2023-09-18T01:54:34;16.60;1.00
6206;DHT22;3136;48.788;9.772;2023-09-18T01:57:00;16.60;1.00
6206;DHT22;3136;48.788;9.772;2023-09-18T01:59:26;16.60;1.00
6206;DHT22;3136;48.788;9.772;2023-09-18T02:01:53;16.70;1.00
6206;DHT22;3136;48.788;9.772;2023-09-18T02:04:19;16.70;1.00
6206;DHT22;3136;48.788;9.772;2023-09-18T02:06:46;16.60;1.00
6206;DHT22;3136;48.788;9.772;2023-09-18T02:09:12;16.60;1.00
6206;DHT22;3136;48.788;9.772;2023-09-18T02:11:47;16.50;1.00
6206;DHT22;3136;48.788;9.772;2023-09-18T02:14:13;16.50;1.00
6206;DHT22;3136;48.788;9.772;2023-09-18T02:16:40;16.60;1.00
6206;DHT22;3136;48.788;9.772;2023-09-18T02:19:07;16.70;15.60
6206;DHT22;3136;48.788;9.772;2023-09-18T02:21:34;16.60;28.40
6206;DHT22;3136;48.788;9.772;2023-09-18T02:23:59;16.60;41.80
6206;DHT22;3136;48.788;9.772;2023-09-18T02:26:25;16.60;18.20
6206;DHT22;3136;48.788;9.772;2023-09-18T02:28:54;16.60;11.90
6206;DHT22;3136;48.788;9.772;2023-09-18T02:31:21;16.60;37.40
6206;DHT22;3136;48.788;9.772;2023-09-18T02:33:47;16.70;94.90
6206;DHT22;3136;48.788;9.772;2023-09-18T02:36:15;16.70;99.90
6206;DHT22;3136;48.788;9.772;2023-09-18T02:38:41;16.80;99.90
6206;DHT22;3136;48.788;9.772;2023-09-18T02:41:08;16.90;99.90
6206;DHT22;3136;48.788;9.772;2023-09-18T02:43:33;16.90;70.30
6206;DHT22;3136;48.788;9.772;2023-09-18T02:45:59;17.00;1.00
6206;DHT22;3136;48.788;9.772;2023-09-18T02:48:25;17.10;1.00
6206;DHT22;3136;48.788;9.772;2023-09-18T02:50:50;17.10;1.00
6206;DHT22;3136;48.788;9.772;2023-09-18T02:53:23;17.20;1.00
6206;DHT22;3136;48.788;9.772;2023-09-18T02:55:51;17.20;1.00
6206;DHT22;3136;48.788;9.772;2023-09-18T02:58:17;17.20;1.00
6206;DHT22;3136;48.788;9.772;2023-09-18T03:00:45;17.30;99.90
6206;DHT22;3136;48.788;9.772;2023-09-18T03:03:11;17.40;99.90
6206;DHT22;3136;48.788;9.772;2023-09-18T03:05:38;17.40;92.00
6206;DHT22;3136;48.788;9.772;2023-09-18T03:08:04;17.40;1.00
6206;DHT22;3136;48.788;9.772;2023-09-18T03:10:34;17.40;1.00
6206;DHT22;3136;48.788;9.772;2023-09-18T03:13:02;17.40;1.00
6206;DHT22;3136;48.788;9.772;2023-09-18T03:15:28;17.40;1.00
6206;DHT22;3136;48.788;9.772;2023-09-18T03:17:55;17.40;1.00
6206;DHT22;3136;48.788;9.772;2023-09-18T03:20:25;17.40;1.00
6206;DHT22;3136;48.788;9.772;2023-09-18T03:22:52;17.50;1.00
6206;DHT22;3136;48.788;9.772;2023-09-18T03:25:18;17.50;1.00
6206;DHT22;3136;48.788;9.772;2023-09-18T03:27:43;17.40;1.00
6206;DHT22;3136;48.788;9.772;2023-09-18T03:30:09;17.30;1.00
6206;DHT22;3136;48.788;9.772;2023-09-18T03:32:38;17.30;1.00
6206;DHT22;3136;48.788;9.772;2023-09-18T03:35:04;17.20;1.00
6206;DHT22;3136;48.788;9.772;2023-09-18T03:37:30;17.20;1.00
6206;DHT22;3136;48.788;9.772;2023-09-18T03:39:55;18.10;1.00
6206;DHT22;3136;48.788;9.772;2023-09-18T03:42:21;17.10;1.00
6206;DHT22;3136;48.788;9.772;2023-09-18T03:44:46;17.00;2.30
6206;DHT22;3136;48.788;9.772;2023-09-18T03:47:12;17.00;99.90
6206;DHT22;3136;48.788;9.772;2023-09-18T03:49:37;17.00;99.90
6206;DHT22;3136;48.788;9.772;2023-09-18T03:52:03;17.10;99.90
6206;DHT22;3136;48.788;9.772;2023-09-18T03:54:28;16.90;99.90
6206;DHT22;3136;48.788;9.772;2023-09-18T03:56:54;17.60;99.90
6206;DHT22;3136;48.788;9.772;2023-09-18T03:59:19;16.80;99.90
6206;DHT22;3136;48.788;9.772;2023-09-18T04:01:45;16.80;1.00
6206;DHT22;3136;48.788;9.772;2023-09-18T04:04:11;16.70;1.00
6206;DHT22;3136;48.788;9.772;2023-09-18T04:06:40;16.70;1.00
6206;DHT22;3136;48.788;9.772;2023-09-18T04:09:06;16.70;1.00
6206;DHT22;3136;48.788;9.772;2023-09-18T04:11:31;16.70;1.00
6206;DHT22;3136;48.788;9.772;2023-09-18T04:13:58;16.70;1.00
6206;DHT22;3136;48.788;9.772;2023-09-18T04:16:25;16.80;1.00
6206;DHT22;3136;48.788;9.772;2023-09-18T04:18:50;16.80;1.00
6206;DHT22;3136;48.788;9.772;2023-09-18T04:21:16;16.80;1.00
6206;DHT22;3136;48.788;9.772;2023-09-18T04:23:41;17.10;1.00
6206;DHT22;3136;48.788;9.772;2023-09-18T04:26:07;16.90;1.00
6206;DHT22;3136;48.788;9.772;2023-09-18T04:28:32;17.10;1.00
6206;DHT22;3136;48.788;9.772;2023-09-18T04:30:58;17.00;1.00
6206;DHT22;3136;48.788;9.772;2023-09-18T04:33:23;17.00;1.00
6206;DHT22;3136;48.788;9.772;2023-09-18T04:35:50;17.10;1.00
6206;DHT22;3136;48.788;9.772;2023-09-18T04:38:16;17.10;1.00
6206;DHT22;3136;48.788;9.772;2023-09-18T04:40:44;17.20;99.90
6206;DHT22;3136;48.788;9.772;2023-09-18T04:43:11;17.20;99.90
6206;DHT22;3136;48.788;9.772;2023-09-18T04:45:36;17.10;99.90
6206;DHT22;3136;48.788;9.772;2023-09-18T04:48:02;17.10;99.90
6206;DHT22;3136;48.788;9.772;2023-09-18T04:50:28;17.10;99.90
6206;DHT22;3136;48.788;9.772;2023-09-18T04:52:55;17.10;99.90
6206;DHT22;3136;48.788;9.772;2023-09-18T04:55:21;17.10;99.90
6206;DHT22;3136;48.788;9.772;2023-09-18T04:57:47;17.10;99.90
6206;DHT22;3136;48.788;9.772;2023-09-18T05:00:13;17.10;99.90
6206;DHT22;3136;48.788;9.772;2023-09-18T05:02:40;17.10;99.90
6206;DHT22;3136;48.788;9.772;2023-09-18T05:05:06;18.30;99.90
6206;DHT22;3136;48.788;9.772;2023-09-18T05:07:34;17.10;99.90
6206;DHT22;3136;48.788;9.772;2023-09-18T05:10:00;17.00;99.90
6206;DHT22;3136;48.788;9.772;2023-09-18T05:12:25;17.40;99.90
6206;DHT22;3136;48.788;9.772;2023-09-18T05:14:51;17.20;99.90
6206;DHT22;3136;48.788;9.772;2023-09-18T05:17:17;17.00;99.90
6206;DHT22;3136;48.788;9.772;2023-09-18T05:19:44;17.10;99.90
6206;DHT22;3136;48.788;9.772;2023-09-18T05:22:10;17.00;99.90
6206;DHT22;3136;48.788;9.772;2023-09-18T05:24:37;17.10;99.90
6206;DHT22;3136;48.788;9.772;2023-09-18T05:27:02;17.00;99.90
6206;DHT22;3136;48.788;9.772;2023-09-18T05:29:28;17.00;99.90
6206;DHT22;3136;48.788;9.772;2023-09-18T05:31:54;17.10;99.90
6206;DHT22;3136;48.788;9.772;2023-09-18T05:34:19;17.40;99.90
6206;DHT22;3136;48.788;9.772;2023-09-18T05:36:45;17.10;99.90
6206;DHT22;3136;48.788;9.772;2023-09-18T05:39:11;17.10;99.90
6206;DHT22;3136;48.788;9.772;2023-09-18T05:41:38;17.60;99.90
6206;DHT22;3136;48.788;9.772;2023-09-18T05:44:04;17.10;99.90
6206;DHT22;3136;48.788;9.772;2023-09-18T05:46:33;17.00;99.90
6206;DHT22;3136;48.788;9.772;2023-09-18T05:48:59;17.10;99.90
6206;DHT22;3136;48.788;9.772;2023-09-18T05:51:26;17.10;1.00
6206;DHT22;3136;48.788;9.772;2023-09-18T05:53:51;18.00;1.00
6206;DHT22;3136;48.788;9.772;2023-09-18T05:56:17;17.20;1.00
6206;DHT22;3136;48.788;9.772;2023-09-18T05:58:43;17.20;1.00
6206;DHT22;3136;48.788;9.772;2023-09-18T06:01:09;17.30;1.00
6206;DHT22;3136;48.788;9.772;2023-09-18T06:03:34;17.60;1.00
6206;DHT22;3136;48.788;9.772;2023-09-18T06:06:04;17.40;1.00
6206;DHT22;3136;48.788;9.772;2023-09-18T06:08:30;17.50;1.00
6206;DHT22;3136;48.788;9.772;2023-09-18T06:10:56;17.60;99.90
6206;DHT22;3136;48.788;9.772;2023-09-18T06:13:24;17.70;99.90
6206;DHT22;3136;48.788;9.772;2023-09-18T06:15:50;17.90;99.90
6206;DHT22;3136;48.788;9.772;2023-09-18T06:18:18;17.90;99.90
6206;DHT22;3136;48.788;9.772;2023-09-18T06:20:46;18.40;56.10
6206;DHT22;3136;48.788;9.772;2023-09-18T06:23:11;18.00;1.00
6206;DHT22;3136;48.788;9.772;2023-09-18T06:25:38;18.20;1.00
6206;DHT22;3136;48.788;9.772;2023-09-18T06:28:04;18.10;1.00
6206;DHT22;3136;48.788;9.772;2023-09-18T06:30:32;18.20;1.00
6206;DHT22;3136;48.788;9.772;2023-09-18T06:32:59;18.30;99.90
6206;DHT22;3136;48.788;9.772;2023-09-18T06:35:24;18.30;1.00
6206;DHT22;3136;48.788;9.772;2023-09-18T06:37:50;18.40;99.90
6206;DHT22;3136;48.788;9.772;2023-09-18T06:40:16;18.90;99.90
6206;DHT22;3136;48.788;9.772;2023-09-18T06:42:41;18.70;1.00
6206;DHT22;3136;48.788;9.772;2023-09-18T06:45:07;19.00;1.00
6206;DHT22;3136;48.788;9.772;2023-09-18T06:47:33;18.80;1.00
6206;DHT22;3136;48.788;9.772;2023-09-18T06:49:59;18.90;1.00
6206;DHT22;3136;48.788;9.772;2023-09-18T06:52:30;19.00;99.90
6206;DHT22;3136;48.788;9.772;2023-09-18T06:54:55;19.00;99.90
6206;DHT22;3136;48.788;9.772;2023-09-18T06:57:23;19.00;99.90
6206;DHT22;3136;48.788;9.772;2023-09-18T06:59:49;19.10;1.00
6206;DHT22;3136;48.788;9.772;2023-09-18T07:02:15;19.20;1.00
6206;DHT22;3136;48.788;9.772;2023-09-18T07:04:41;19.20;99.90
6206;DHT22;3136;48.788;9.772;2023-09-18T07:07:14;19.20;1.00
6206;DHT22;3136;48.788;9.772;2023-09-18T07:09:41;19.30;1.00
6206;DHT22;3136;48.788;9.772;2023-09-18T07:12:10;19.30;4.50
6206;DHT22;3136;48.788;9.772;2023-09-18T07:14:36;19.30;1.00
6206;DHT22;3136;48.788;9.772;2023-09-18T07:17:04;19.30;1.00
6206;DHT22;3136;48.788;9.772;2023-09-18T07:19:29;19.40;1.00
6206;DHT22;3136;48.788;9.772;2023-09-18T07:21:55;19.40;1.00
6206;DHT22;3136;48.788;9.772;2023-09-18T07:24:20;19.70;1.00
6206;DHT22;3136;48.788;9.772;2023-09-18T07:26:47;19.50;99.90
6206;DHT22;3136;48.788;9.772;2023-09-18T07:29:14;19.70;99.90
6206;DHT22;3136;48.788;9.772;2023-09-18T07:31:41;19.70;28.80
6206;DHT22;3136;48.788;9.772;2023-09-18T07:34:06;19.80;99.90
6206;DHT22;3136;48.788;9.772;2023-09-18T07:36:32;19.90;99.90
6206;DHT22;3136;48.788;9.772;2023-09-18T07:38:58;20.00;99.90
6206;DHT22;3136;48.788;9.772;2023-09-18T07:41:23;20.30;1.00
6206;DHT22;3136;48.788;9.772;2023-09-18T07:43:50;20.10;99.90
6206;DHT22;3136;48.788;9.772;2023-09-18T07:46:16;20.30;1.00
6206;DHT22;3136;48.788;9.772;2023-09-18T07:48:42;20.30;1.00
6206;DHT22;3136;48.788;9.772;2023-09-18T07:51:13;20.50;99.90
6206;DHT22;3136;48.788;9.772;2023-09-18T07:53:41;20.40;99.90
6206;DHT22;3136;48.788;9.772;2023-09-18T07:56:07;20.40;99.90
6206;DHT22;3136;48.788;9.772;2023-09-18T07:58:32;20.10;1.00
6206;DHT22;3136;48.788;9.772;2023-09-18T08:00:59;20.60;1.00
6206;DHT22;3136;48.788;9.772;2023-09-18T08:03:25;20.60;1.00
6206;DHT22;3136;48.788;9.772;2023-09-18T08:05:54;20.90;1.00
6206;DHT22;3136;48.788;9.772;2023-09-18T08:08:21;20.90;1.00
6206;DHT22;3136;48.788;9.772;2023-09-18T08:10:48;20.90;99.90
6206;DHT22;3136;48.788;9.772;2023-09-18T08:13:13;21.10;1.00
6206;DHT22;3136;48.788;9.772;2023-09-18T08:15:39;21.10;99.90
6206;DHT22;3136;48.788;9.772;2023-09-18T08:18:05;21.10;1.00
6206;DHT22;3136;48.788;9.772;2023-09-18T08:20:30;21.20;99.90
6206;DHT22;3136;48.788;9.772;2023-09-18T08:22:58;21.20;1.00
6206;DHT22;3136;48.788;9.772;2023-09-18T08:25:26;21.30;1.00
6206;DHT22;3136;48.788;9.772;2023-09-18T08:27:52;21.40;1.00
6206;DHT22;3136;48.788;9.772;2023-09-18T08:30:18;21.50;99.90
6206;DHT22;3136;48.788;9.772;2023-09-18T08:32:46;21.60;99.90
6206;DHT22;3136;48.788;9.772;2023-09-18T08:35:12;21.70;99.90
6206;DHT22;3136;48.788;9.772;2023-09-18T08:37:39;21.80;99.90
6206;DHT22;3136;48.788;9.772;2023-09-18T08:40:06;21.90;99.90
6206;DHT22;3136;48.788;9.772;2023-09-18T08:42:36;21.80;99.90
6206;DHT22;3136;48.788;9.772;2023-09-18T08:45:08;21.80;99.90
6206;DHT22;3136;48.788;9.772;2023-09-18T08:47:38;21.70;99.90
6206;DHT22;3136;48.788;9.772;2023-09-18T08:50:06;21.70;99.90
6206;DHT22;3136;48.788;9.772;2023-09-18T08:52:33;21.70;99.90
6206;DHT22;3136;48.788;9.772;2023-09-18T08:54:59;21.60;99.90
6206;DHT22;3136;48.788;9.772;2023-09-18T08:57:27;21.50;99.90
6206;DHT22;3136;48.788;9.772;2023-09-18T08:59:55;21.50;99.90
6206;DHT22;3136;48.788;9.772;2023-09-18T09:02:21;21.40;99.90
6206;DHT22;3136;48.788;9.772;2023-09-18T09:04:47;21.30;99.90
6206;DHT22;3136;48.788;9.772;2023-09-18T09:07:12;21.20;99.90
6206;DHT22;3136;48.788;9.772;2023-09-18T09:09:38;21.10;99.90
6206;DHT22;3136;48.788;9.772;2023-09-18T09:12:04;21.10;99.90
6206;DHT22;3136;48.788;9.772;2023-09-18T09:14:29;21.00;99.90
6206;DHT22;3136;48.788;9.772;2023-09-18T09:16:56;20.90;99.90
6206;DHT22;3136;48.788;9.772;2023-09-18T09:19:32;20.90;99.90
6206;DHT22;3136;48.788;9.772;2023-09-18T09:21:59;20.80;99.90
6206;DHT22;3136;48.788;9.772;2023-09-18T09:24:43;20.90;99.90
6206;DHT22;3136;48.788;9.772;2023-09-18T09:27:09;20.80;99.90
6206;DHT22;3136;48.788;9.772;2023-09-18T09:29:36;20.90;99.90
6206;DHT22;3136;48.788;9.772;2023-09-18T09:32:16;20.90;99.90
6206;DHT22;3136;48.788;9.772;2023-09-18T09:34:42;20.80;99.90
6206;DHT22;3136;48.788;9.772;2023-09-18T09:37:09;20.90;99.90
6206;DHT22;3136;48.788;9.772;2023-09-18T09:39:49;20.80;99.90
6206;DHT22;3136;48.788;9.772;2023-09-18T09:42:18;20.60;99.90
6206;DHT22;3136;48.788;9.772;2023-09-18T09:45:00;20.60;99.90
6206;DHT22;3136;48.788;9.772;2023-09-18T09:47:27;20.60;99.90
6206;DHT22;3136;48.788;9.772;2023-09-18T09:49:52;20.50;99.90
6206;DHT22;3136;48.788;9.772;2023-09-18T09:52:20;20.50;1.00
6206;DHT22;3136;48.788;9.772;2023-09-18T09:54:48;20.20;1.00
6206;DHT22;3136;48.788;9.772;2023-09-18T09:57:14;20.00;60.90
6206;DHT22;3136;48.788;9.772;2023-09-18T09:59:39;19.80;99.90
6206;DHT22;3136;48.788;9.772;2023-09-18T10:02:10;19.80;1.00
6206;DHT22;3136;48.788;9.772;2023-09-18T10:04:40;19.50;99.90
6206;DHT22;3136;48.788;9.772;2023-09-18T10:07:09;19.30;99.90
6206;DHT22;3136;48.788;9.772;2023-09-18T10:09:41;19.20;1.00
6206;DHT22;3136;48.788;9.772;2023-09-18T10:12:11;19.00;1.00
6206;DHT22;3136;48.788;9.772;2023-09-18T10:14:37;18.90;99.90
6206;DHT22;3136;48.788;9.772;2023-09-18T10:17:14;18.80;99.90
6206;DHT22;3136;48.788;9.772;2023-09-18T10:19:59;18.70;1.00
6206;DHT22;3136;48.788;9.772;2023-09-18T10:22:43;18.60;1.00
6206;DHT22;3136;48.788;9.772;2023-09-18T10:25:15;18.60;99.90
6206;DHT22;3136;48.788;9.772;2023-09-18T10:27:49;18.50;99.90
6206;DHT22;3136;48.788;9.772;2023-09-18T10:30:19;18.50;99.90
6206;DHT22;3136;48.788;9.772;2023-09-18T10:32:45;18.40;9.80
6206;DHT22;3136;48.788;9.772;2023-09-18T10:35:11;18.30;99.90
6206;DHT22;3136;48.788;9.772;2023-09-18T10:37:38;18.30;99.90
6206;DHT22;3136;48.788;9.772;2023-09-18T10:40:05;18.10;1.00
6206;DHT22;3136;48.788;9.772;2023-09-18T10:42:34;18.10;99.90
6206;DHT22;3136;48.788;9.772;2023-09-18T10:45:01;18.00;1.00
6206;DHT22;3136;48.788;9.772;2023-09-18T10:47:29;18.00;1.00
6206;DHT22;3136;48.788;9.772;2023-09-18T10:49:56;18.00;99.90
6206;DHT22;3136;48.788;9.772;2023-09-18T10:52:21;18.00;1.00
6206;DHT22;3136;48.788;9.772;2023-09-18T10:54:47;18.00;99.90
6206;DHT22;3136;48.788;9.772;2023-09-18T10:57:12;18.00;1.00
6206;DHT22;3136;48.788;9.772;2023-09-18T10:59:45;18.10;99.90
6206;DHT22;3136;48.788;9.772;2023-09-18T11:02:14;18.10;99.90
6206;DHT22;3136;48.788;9.772;2023-09-18T11:04:44;18.10;99.90
6206;DHT22;3136;48.788;9.772;2023-09-18T11:07:22;18.10;99.90
6206;DHT22;3136;48.788;9.772;2023-09-18T11:09:49;18.10;1.00
6206;DHT22;3136;48.788;9.772;2023-09-18T11:12:15;18.20;1.00
6206;DHT22;3136;48.788;9.772;2023-09-18T11:14:56;18.20;1.00
6206;DHT22;3136;48.788;9.772;2023-09-18T11:17:35;18.20;1.00
6206;DHT22;3136;48.788;9.772;2023-09-18T11:20:06;18.10;1.00
6206;DHT22;3136;48.788;9.772;2023-09-18T11:22:40;18.10;1.00
6206;DHT22;3136;48.788;9.772;2023-09-18T11:25:40;18.20;99.90
6206;DHT22;3136;48.788;9.772;2023-09-18T11:28:08;18.20;99.90
6206;DHT22;3136;48.788;9.772;2023-09-18T11:30:38;18.20;99.90
6206;DHT22;3136;48.788;9.772;2023-09-18T11:33:05;18.20;99.90
6206;DHT22;3136;48.788;9.772;2023-09-18T11:35:32;18.20;99.90
6206;DHT22;3136;48.788;9.772;2023-09-18T11:38:09;18.00;99.90
6206;DHT22;3136;48.788;9.772;2023-09-18T11:40:38;18.20;1.00
6206;DHT22;3136;48.788;9.772;2023-09-18T11:43:28;18.20;1.00
6206;DHT22;3136;48.788;9.772;2023-09-18T11:46:01;18.10;1.00
6206;DHT22;3136;48.788;9.772;2023-09-18T11:48:30;18.10;1.00
6206;DHT22;3136;48.788;9.772;2023-09-18T11:51:00;18.10;1.00
6206;DHT22;3136;48.788;9.772;2023-09-18T11:53:28;18.00;1.00
6206;DHT22;3136;48.788;9.772;2023-09-18T11:55:54;18.00;26.40
6206;DHT22;3136;48.788;9.772;2023-09-18T11:58:21;18.00;99.90
6206;DHT22;3136;48.788;9.772;2023-09-18T12:00:49;18.00;99.90
6206;DHT22;3136;48.788;9.772;2023-09-18T12:03:20;17.90;99.90
6206;DHT22;3136;48.788;9.772;2023-09-18T12:06:02;17.90;99.90
6206;DHT22;3136;48.788;9.772;2023-09-18T12:08:31;17.90;99.90
6206;DHT22;3136;48.788;9.772;2023-09-18T12:10:58;17.90;99.90
6206;DHT22;3136;48.788;9.772;2023-09-18T12:13:27;17.90;99.90
6206;DHT22;3136;48.788;9.772;2023-09-18T12:16:00;17.90;99.90
6206;DHT22;3136;48.788;9.772;2023-09-18T12:18:27;17.90;99.90
6206;DHT22;3136;48.788;9.772;2023-09-18T12:20:57;17.90;99.90
6206;DHT22;3136;48.788;9.772;2023-09-18T12:23:24;17.90;99.90
6206;DHT22;3136;48.788;9.772;2023-09-18T12:25:57;17.90;99.90
6206;DHT22;3136;48.788;9.772;2023-09-18T12:28:25;17.80;99.90
6206;DHT22;3136;48.788;9.772;2023-09-18T12:30:52;17.90;99.90
6206;DHT22;3136;48.788;9.772;2023-09-18T12:33:22;17.90;99.90
6206;DHT22;3136;48.788;9.772;2023-09-18T12:35:47;17.80;99.90
6206;DHT22;3136;48.788;9.772;2023-09-18T12:38:15;18.20;99.90
6206;DHT22;3136;48.788;9.772;2023-09-18T12:40:42;17.90;99.90
6206;DHT22;3136;48.788;9.772;2023-09-18T12:43:09;17.80;99.90
6206;DHT22;3136;48.788;9.772;2023-09-18T12:45:35;17.80;99.90
6206;DHT22;3136;48.788;9.772;2023-09-18T12:48:02;17.80;99.90
6206;DHT22;3136;48.788;9.772;2023-09-18T12:50:29;17.80;99.90
6206;DHT22;3136;48.788;9.772;2023-09-18T12:53:12;17.80;99.90
6206;DHT22;3136;48.788;9.772;2023-09-18T12:55:39;17.70;99.90
6206;DHT22;3136;48.788;9.772;2023-09-18T12:58:05;17.80;99.90
6206;DHT22;3136;48.788;9.772;2023-09-18T13:00:35;18.00;99.90
6206;DHT22;3136;48.788;9.772;2023-09-18T13:03:02;18.00;99.90
6206;DHT22;3136;48.788;9.772;2023-09-18T13:05:30;18.00;1.00
6206;DHT22;3136;48.788;9.772;2023-09-18T13:08:04;18.10;1.00
6206;DHT22;3136;48.788;9.772;2023-09-18T13:10:47;18.20;99.90
6206;DHT22;3136;48.788;9.772;2023-09-18T13:13:17;18.30;99.90
6206;DHT22;3136;48.788;9.772;2023-09-18T13:15:43;18.30;1.00
6206;DHT22;3136;48.788;9.772;2023-09-18T13:18:11;18.60;1.00
6206;DHT22;3136;48.788;9.772;2023-09-18T13:20:37;18.80;56.40
6206;DHT22;3136;48.788;9.772;2023-09-18T13:23:05;18.80;1.00
6206;DHT22;3136;48.788;9.772;2023-09-18T13:25:33;19.10;1.00
6206;DHT22;3136;48.788;9.772;2023-09-18T13:28:00;19.20;1.00
6206;DHT22;3136;48.788;9.772;2023-09-18T13:30:26;19.20;99.90
6206;DHT22;3136;48.788;9.772;2023-09-18T13:33:01;19.20;99.90
6206;DHT22;3136;48.788;9.772;2023-09-18T13:35:28;19.30;99.90
6206;DHT22;3136;48.788;9.772;2023-09-18T13:37:53;19.40;99.90
6206;DHT22;3136;48.788;9.772;2023-09-18T13:40:19;19.80;99.90
6206;DHT22;3136;48.788;9.772;2023-09-18T13:42:45;19.80;1.00
6206;DHT22;3136;48.788;9.772;2023-09-18T13:45:10;19.90;7.70
6206;DHT22;3136;48.788;9.772;2023-09-18T13:47:36;19.90;99.90
6206;DHT22;3136;48.788;9.772;2023-09-18T13:50:03;20.00;99.90
6206;DHT22;3136;48.788;9.772;2023-09-18T13:52:31;20.10;1.00
6206;DHT22;3136;48.788;9.772;2023-09-18T13:54:57;20.10;1.00
6206;DHT22;3136;48.788;9.772;2023-09-18T13:57:22;20.40;1.00
6206;DHT22;3136;48.788;9.772;2023-09-18T13:59:51;20.90;1.00
6206;DHT22;3136;48.788;9.772;2023-09-18T14:02:17;21.30;1.00
6206;DHT22;3136;48.788;9.772;2023-09-18T14:04:43;21.50;1.00
6206;DHT22;3136;48.788;9.772;2023-09-18T14:07:10;21.50;99.90
6206;DHT22;3136;48.788;9.772;2023-09-18T14:09:36;21.30;1.00
6206;DHT22;3136;48.788;9.772;2023-09-18T14:12:02;21.00;1.00
6206;DHT22;3136;48.788;9.772;2023-09-18T14:14:28;20.90;99.90
6206;DHT22;3136;48.788;9.772;2023-09-18T14:16:54;20.70;1.00
6206;DHT22;3136;48.788;9.772;2023-09-18T14:19:20;20.80;1.00
6206;DHT22;3136;48.788;9.772;2023-09-18T14:21:46;20.70;1.00
6206;DHT22;3136;48.788;9.772;2023-09-18T14:24:12;20.80;99.90
6206;DHT22;3136;48.788;9.772;2023-09-18T14:26:37;20.90;43.80
6206;DHT22;3136;48.788;9.772;2023-09-18T14:29:12;21.50;99.90
6206;DHT22;3136;48.788;9.772;2023-09-18T14:31:39;21.70;29.60
6206;DHT22;3136;48.788;9.772;2023-09-18T14:34:04;21.90;99.90
6206;DHT22;3136;48.788;9.772;2023-09-18T14:36:34;21.90;1.00
6206;DHT22;3136;48.788;9.772;2023-09-18T14:39:00;21.80;1.00
6206;DHT22;3136;48.788;9.772;2023-09-18T14:41:27;21.70;1.00
6206;DHT22;3136;48.788;9.772;2023-09-18T14:43:52;20.30;1.00
6206;DHT22;3136;48.788;9.772;2023-09-18T14:46:19;21.50;1.00
6206;DHT22;3136;48.788;9.772;2023-09-18T14:48:45;21.50;99.90
6206;DHT22;3136;48.788;9.772;2023-09-18T14:51:11;21.60;99.90
6206;DHT22;3136;48.788;9.772;2023-09-18T14:53:37;21.60;1.00
6206;DHT22;3136;48.788;9.772;2023-09-18T14:56:03;21.40;99.90
6206;DHT22;3136;48.788;9.772;2023-09-18T14:58:29;21.30;99.90
6206;DHT22;3136;48.788;9.772;2023-09-18T15:00:56;21.60;1.00
6206;DHT22;3136;48.788;9.772;2023-09-18T15:03:22;21.20;99.90
6206;DHT22;3136;48.788;9.772;2023-09-18T15:05:50;21.20;1.00
6206;DHT22;3136;48.788;9.772;2023-09-18T15:08:16;21.10;1.00
6206;DHT22;3136;48.788;9.772;2023-09-18T15:10:43;21.00;1.00
6206;DHT22;3136;48.788;9.772;2023-09-18T15:13:09;21.00;1.00
6206;DHT22;3136;48.788;9.772;2023-09-18T15:15:34;20.90;1.00
6206;DHT22;3136;48.788;9.772;2023-09-18T15:18:01;20.90;1.00
6206;DHT22;3136;48.788;9.772;2023-09-18T15:20:26;20.90;1.00
6206;DHT22;3136;48.788;9.772;2023-09-18T15:22:52;20.70;1.00
6206;DHT22;3136;48.788;9.772;2023-09-18T15:25:18;20.80;43.50
6206;DHT22;3136;48.788;9.772;2023-09-18T15:27:45;21.10;1.00
6206;DHT22;3136;48.788;9.772;2023-09-18T15:30:10;20.60;1.00
6206;DHT22;3136;48.788;9.772;2023-09-18T15:32:58;20.60;99.90
6206;DHT22;3136;48.788;9.772;2023-09-18T15:35:25;20.70;99.90
6206;DHT22;3136;48.788;9.772;2023-09-18T15:37:52;20.60;99.90
6206;DHT22;3136;48.788;9.772;2023-09-18T15:40:18;20.80;99.90
6206;DHT22;3136;48.788;9.772;2023-09-18T15:42:45;20.80;99.90
6206;DHT22;3136;48.788;9.772;2023-09-18T15:45:11;20.80;55.00
6206;DHT22;3136;48.788;9.772;2023-09-18T15:47:37;20.80;1.00
6206;DHT22;3136;48.788;9.772;2023-09-18T15:50:05;20.80;1.00
6206;DHT22;3136;48.788;9.772;2023-09-18T15:52:31;20.80;9.10
6206;DHT22;3136;48.788;9.772;2023-09-18T15:54:57;20.80;99.90
6206;DHT22;3136;48.788;9.772;2023-09-18T15:57:24;21.00;99.90
6206;DHT22;3136;48.788;9.772;2023-09-18T15:59:50;20.80;1.00
6206;DHT22;3136;48.788;9.772;2023-09-18T16:02:15;21.00;1.00
6206;DHT22;3136;48.788;9.772;2023-09-18T16:04:41;20.80;1.00
6206;DHT22;3136;48.788;9.772;2023-09-18T16:07:07;20.90;1.00
6206;DHT22;3136;48.788;9.772;2023-09-18T16:09:37;20.80;99.90
6206;DHT22;3136;48.788;9.772;2023-09-18T16:12:03;20.80;99.90